sensor_id;sensor_type;location;lat;lon;timestamp;pressure;altitude;pressure_sealevel;temperature;humidity
55486;BME280;49383;-25.924;28.194;2023-02-19T00:00:48;84705.95;;;20.83;48.61
55486;BME280;49383;-25.924;28.194;2023-02-19T00:03:13;84703.79;;;20.95;49.26
55486;BME280;49383;-25.924;28.194;2023-02-19T00:05:38;84699.13;;;20.93;46.51
55486;BME280;49383;-25.924;28.194;2023-02-19T00:08:03;84697.40;;;21.13;45.04
55486;BME280;49383;-25.924;28.194;2023-02-19T00:10:28;84697.80;;;20.99;46.26
55486;BME280;49383;-25.924;28.194;2023-02-19T00:12:53;84700.10;;;20.83;47.99
55486;BME280;49383;-25.924;28.194;2023-02-19T00:15:18;84701.51;;;20.87;49.35
55486;BME280;49383;-25.924;28.194;2023-02-19T00:17:43;84702.79;;;20.51;50.33
55486;BME280;49383;-25.924;28.194;2023-02-19T00:20:09;84696.45;;;20.84;46.90
55486;BME280;49383;-25.924;28.194;2023-02-19T00:22:33;84695.34;;;20.92;45.33
55486;BME280;49383;-25.924;28.194;2023-02-19T00:24:59;84696.54;;;20.90;47.61
55486;BME280;49383;-25.924;28.194;2023-02-19T00:27:23;84697.18;;;20.87;48.90
55486;BME280;49383;-25.924;28.194;2023-02-19T00:29:49;84697.05;;;20.99;49.75
55486;BME280;49383;-25.924;28.194;2023-02-19T00:32:14;84697.04;;;21.01;47.39
55486;BME280;49383;-25.924;28.194;2023-02-19T00:34:39;84697.35;;;21.22;45.40
55486;BME280;49383;-25.924;28.194;2023-02-19T00:37:04;84689.21;;;21.27;44.89
55486;BME280;49383;-25.924;28.194;2023-02-19T00:39:29;84688.68;;;21.32;44.25
55486;BME280;49383;-25.924;28.194;2023-02-19T00:41:54;84692.65;;;21.31;43.96
55486;BME280;49383;-25.924;28.194;2023-02-19T00:44:19;84689.85;;;21.39;43.16
55486;BME280;49383;-25.924;28.194;2023-02-19T00:46:45;84684.81;;;21.33;43.01
55486;BME280;49383;-25.924;28.194;2023-02-19T00:49:14;84681.50;;;21.00;42.66
55486;BME280;49383;-25.924;28.194;2023-02-19T00:51:35;84681.23;;;20.87;42.64
55486;BME280;49383;-25.924;28.194;2023-02-19T00:53:59;84671.88;;;20.92;42.30
55486;BME280;49383;-25.924;28.194;2023-02-19T00:56:24;84671.21;;;20.86;42.89
55486;BME280;49383;-25.924;28.194;2023-02-19T00:58:50;84672.85;;;21.05;45.12
55486;BME280;49383;-25.924;28.194;2023-02-19T01:01:15;84669.34;;;20.96;47.34
55486;BME280;49383;-25.924;28.194;2023-02-19T01:03:40;84667.18;;;20.48;48.72
55486;BME280;49383;-25.924;28.194;2023-02-19T01:06:06;84667.52;;;20.66;48.77
55486;BME280;49383;-25.924;28.194;2023-02-19T01:08:30;84663.76;;;20.89;45.53
55486;BME280;49383;-25.924;28.194;2023-02-19T01:10:55;84660.58;;;21.12;44.48
55486;BME280;49383;-25.924;28.194;2023-02-19T01:13:20;84665.80;;;21.14;46.36
55486;BME280;49383;-25.924;28.194;2023-02-19T01:15:45;84670.10;;;21.13;47.73
55486;BME280;49383;-25.924;28.194;2023-02-19T01:18:10;84674.68;;;20.75;49.44
55486;BME280;49383;-25.924;28.194;2023-02-19T01:20:37;84672.11;;;20.50;48.23
55486;BME280;49383;-25.924;28.194;2023-02-19T01:23:00;84671.91;;;20.81;45.90
55486;BME280;49383;-25.924;28.194;2023-02-19T01:25:25;84671.90;;;20.99;46.33
55486;BME280;49383;-25.924;28.194;2023-02-19T01:27:50;84671.74;;;20.87;47.98
55486;BME280;49383;-25.924;28.194;2023-02-19T01:30:15;84671.85;;;20.67;49.53
55486;BME280;49383;-25.924;28.194;2023-02-19T01:32:40;84667.04;;;20.41;48.58
55486;BME280;49383;-25.924;28.194;2023-02-19T01:35:05;84666.28;;;20.52;45.90
55486;BME280;49383;-25.924;28.194;2023-02-19T01:37:30;84662.11;;;21.15;45.98
55486;BME280;49383;-25.924;28.194;2023-02-19T01:39:55;84668.94;;;20.92;47.85
55486;BME280;49383;-25.924;28.194;2023-02-19T01:42:20;84667.26;;;20.79;49.69
55486;BME280;49383;-25.924;28.194;2023-02-19T01:47:11;84666.16;;;20.69;45.70
55486;BME280;49383;-25.924;28.194;2023-02-19T01:49:38;84658.60;;;20.88;44.15
55486;BME280;49383;-25.924;28.194;2023-02-19T01:52:03;84655.31;;;21.34;43.57
55486;BME280;49383;-25.924;28.194;2023-02-19T01:54:29;84655.05;;;21.14;43.30
55486;BME280;49383;-25.924;28.194;2023-02-19T01:56:52;84653.40;;;21.07;44.33
55486;BME280;49383;-25.924;28.194;2023-02-19T01:59:18;84661.19;;;21.05;46.50
55486;BME280;49383;-25.924;28.194;2023-02-19T02:01:42;84660.93;;;20.82;47.86
55486;BME280;49383;-25.924;28.194;2023-02-19T02:04:10;84664.73;;;20.72;49.14
55486;BME280;49383;-25.924;28.194;2023-02-19T02:06:37;84663.35;;;20.84;49.13
55486;BME280;49383;-25.924;28.194;2023-02-19T02:09:00;84660.94;;;20.70;45.97
55486;BME280;49383;-25.924;28.194;2023-02-19T02:11:25;84659.35;;;20.77;45.20
55486;BME280;49383;-25.924;28.194;2023-02-19T02:13:51;84656.35;;;21.09;44.48
55486;BME280;49383;-25.924;28.194;2023-02-19T02:16:22;84656.43;;;21.22;43.68
55486;BME280;49383;-25.924;28.194;2023-02-19T02:18:50;84655.71;;;21.19;43.21
55486;BME280;49383;-25.924;28.194;2023-02-19T02:23:43;84660.69;;;21.00;46.63
55486;BME280;49383;-25.924;28.194;2023-02-19T02:28:36;84658.52;;;20.83;49.47
55486;BME280;49383;-25.924;28.194;2023-02-19T02:30:50;84659.47;;;20.63;50.30
55486;BME280;49383;-25.924;28.194;2023-02-19T02:33:20;84658.32;;;20.53;47.96
55486;BME280;49383;-25.924;28.194;2023-02-19T02:35:43;84653.90;;;21.01;45.42
55486;BME280;49383;-25.924;28.194;2023-02-19T02:38:07;84652.14;;;21.03;46.86
55486;BME280;49383;-25.924;28.194;2023-02-19T02:40:30;84660.81;;;21.20;48.64
55486;BME280;49383;-25.924;28.194;2023-02-19T02:42:57;84663.78;;;20.74;50.16
55486;BME280;49383;-25.924;28.194;2023-02-19T02:45:27;84663.94;;;20.81;50.65
55486;BME280;49383;-25.924;28.194;2023-02-19T02:47:51;84664.12;;;20.69;47.87
55486;BME280;49383;-25.924;28.194;2023-02-19T02:50:12;84657.73;;;20.94;45.62
55486;BME280;49383;-25.924;28.194;2023-02-19T02:52:37;84660.73;;;20.97;44.35
55486;BME280;49383;-25.924;28.194;2023-02-19T02:55:01;84662.39;;;21.02;45.97
55486;BME280;49383;-25.924;28.194;2023-02-19T02:57:26;84663.62;;;20.77;47.74
55486;BME280;49383;-25.924;28.194;2023-02-19T02:59:51;84666.19;;;21.16;49.54
55486;BME280;49383;-25.924;28.194;2023-02-19T03:02:19;84664.66;;;20.38;51.02
55486;BME280;49383;-25.924;28.194;2023-02-19T03:04:47;84662.32;;;20.53;48.44
55486;BME280;49383;-25.924;28.194;2023-02-19T03:07:08;84663.26;;;20.96;45.93
55486;BME280;49383;-25.924;28.194;2023-02-19T03:09:34;84666.34;;;20.96;47.34
55486;BME280;49383;-25.924;28.194;2023-02-19T03:11:59;84667.20;;;21.02;48.57
55486;BME280;49383;-25.924;28.194;2023-02-19T03:14:24;84671.81;;;20.75;50.04
55486;BME280;49383;-25.924;28.194;2023-02-19T03:16:48;84672.61;;;20.65;49.25
55486;BME280;49383;-25.924;28.194;2023-02-19T03:19:14;84674.75;;;20.74;46.93
55486;BME280;49383;-25.924;28.194;2023-02-19T03:21:39;84672.04;;;20.64;45.89
55486;BME280;49383;-25.924;28.194;2023-02-19T03:24:03;84679.67;;;20.72;47.75
55486;BME280;49383;-25.924;28.194;2023-02-19T03:26:28;84682.51;;;20.65;49.29
55486;BME280;49383;-25.924;28.194;2023-02-19T03:28:53;84683.89;;;20.65;50.38
55486;BME280;49383;-25.924;28.194;2023-02-19T03:31:21;84681.20;;;20.76;51.06
55486;BME280;49383;-25.924;28.194;2023-02-19T03:33:44;84682.52;;;20.56;47.69
55486;BME280;49383;-25.924;28.194;2023-02-19T03:36:12;84676.10;;;21.04;46.13
55486;BME280;49383;-25.924;28.194;2023-02-19T03:38:39;84681.99;;;20.93;47.62
55486;BME280;49383;-25.924;28.194;2023-02-19T03:41:04;84685.72;;;20.80;49.53
55486;BME280;49383;-25.924;28.194;2023-02-19T03:43:30;84689.55;;;20.62;50.90
55486;BME280;49383;-25.924;28.194;2023-02-19T03:45:55;84693.55;;;21.11;50.90
55486;BME280;49383;-25.924;28.194;2023-02-19T03:48:23;84696.16;;;20.90;47.88
55486;BME280;49383;-25.924;28.194;2023-02-19T03:50:43;84695.20;;;21.01;46.27
55486;BME280;49383;-25.924;28.194;2023-02-19T03:53:09;84695.17;;;20.98;47.56
55486;BME280;49383;-25.924;28.194;2023-02-19T03:55:35;84696.91;;;20.76;49.62
55486;BME280;49383;-25.924;28.194;2023-02-19T03:57:57;84696.21;;;20.90;50.67
55486;BME280;49383;-25.924;28.194;2023-02-19T04:00:22;84697.90;;;20.84;50.55
55486;BME280;49383;-25.924;28.194;2023-02-19T04:02:49;84697.89;;;20.76;47.95
55486;BME280;49383;-25.924;28.194;2023-02-19T04:05:12;84698.23;;;20.79;47.30
55486;BME280;49383;-25.924;28.194;2023-02-19T04:07:37;84701.24;;;20.96;47.89
55486;BME280;49383;-25.924;28.194;2023-02-19T04:09:59;84703.55;;;20.76;49.45
55486;BME280;49383;-25.924;28.194;2023-02-19T04:12:25;84705.91;;;20.90;48.27
55486;BME280;49383;-25.924;28.194;2023-02-19T04:14:54;84704.75;;;20.68;46.44
55486;BME280;49383;-25.924;28.194;2023-02-19T04:17:19;84705.43;;;20.87;46.92
55486;BME280;49383;-25.924;28.194;2023-02-19T04:19:41;84705.83;;;20.89;48.86
55486;BME280;49383;-25.924;28.194;2023-02-19T04:22:06;84705.97;;;20.85;49.90
55486;BME280;49383;-25.924;28.194;2023-02-19T04:24:33;84708.56;;;20.73;48.16
55486;BME280;49383;-25.924;28.194;2023-02-19T04:26:56;84712.19;;;20.59;46.32
55486;BME280;49383;-25.924;28.194;2023-02-19T04:29:21;84712.99;;;20.98;47.83
55486;BME280;49383;-25.924;28.194;2023-02-19T04:31:47;84716.95;;;21.05;48.73
55486;BME280;49383;-25.924;28.194;2023-02-19T04:34:12;84717.43;;;20.46;50.84
55486;BME280;49383;-25.924;28.194;2023-02-19T04:36:38;84718.78;;;20.65;47.66
55486;BME280;49383;-25.924;28.194;2023-02-19T04:39:03;84717.51;;;20.94;46.18
55486;BME280;49383;-25.924;28.194;2023-02-19T04:41:28;84720.07;;;21.12;47.50
55486;BME280;49383;-25.924;28.194;2023-02-19T04:43:53;84720.77;;;20.31;48.55
55486;BME280;49383;-25.924;28.194;2023-02-19T04:46:18;84722.01;;;21.05;49.66
55486;BME280;49383;-25.924;28.194;2023-02-19T04:48:43;84725.26;;;20.66;48.73
55486;BME280;49383;-25.924;28.194;2023-02-19T04:51:09;84724.84;;;20.79;46.63
55486;BME280;49383;-25.924;28.194;2023-02-19T04:53:33;84725.84;;;20.70;47.19
55486;BME280;49383;-25.924;28.194;2023-02-19T04:56:05;84732.51;;;20.79;48.79
55486;BME280;49383;-25.924;28.194;2023-02-19T04:58:24;84732.04;;;20.73;50.42
55486;BME280;49383;-25.924;28.194;2023-02-19T05:00:51;84730.02;;;20.91;47.25
55486;BME280;49383;-25.924;28.194;2023-02-19T05:03:13;84727.52;;;21.13;45.42
55486;BME280;49383;-25.924;28.194;2023-02-19T05:05:39;84726.17;;;20.98;47.10
55486;BME280;49383;-25.924;28.194;2023-02-19T05:08:05;84728.00;;;20.93;48.76
55486;BME280;49383;-25.924;28.194;2023-02-19T05:10:30;84728.79;;;20.81;50.13
55486;BME280;49383;-25.924;28.194;2023-02-19T05:12:55;84730.82;;;20.78;51.01
55486;BME280;49383;-25.924;28.194;2023-02-19T05:15:21;84730.85;;;20.45;52.48
55486;BME280;49383;-25.924;28.194;2023-02-19T05:17:46;84735.22;;;20.46;53.22
55486;BME280;49383;-25.924;28.194;2023-02-19T05:20:11;84738.73;;;20.50;53.76
55486;BME280;49383;-25.924;28.194;2023-02-19T05:22:36;84738.41;;;20.91;54.63
55486;BME280;49383;-25.924;28.194;2023-02-19T05:25:01;84741.50;;;20.81;54.83
55486;BME280;49383;-25.924;28.194;2023-02-19T05:27:26;84739.19;;;20.65;55.06
55486;BME280;49383;-25.924;28.194;2023-02-19T05:29:51;84740.99;;;21.15;55.03
55486;BME280;49383;-25.924;28.194;2023-02-19T05:32:16;84740.33;;;21.18;54.70
55486;BME280;49383;-25.924;28.194;2023-02-19T05:34:41;84742.69;;;20.81;55.14
55486;BME280;49383;-25.924;28.194;2023-02-19T05:37:06;84746.48;;;20.96;55.63
55486;BME280;49383;-25.924;28.194;2023-02-19T05:39:31;84751.01;;;20.96;55.52
55486;BME280;49383;-25.924;28.194;2023-02-19T05:41:56;84755.31;;;20.82;55.91
55486;BME280;49383;-25.924;28.194;2023-02-19T05:44:21;84756.11;;;21.33;55.81
55486;BME280;49383;-25.924;28.194;2023-02-19T05:46:46;84755.85;;;21.29;56.01
55486;BME280;49383;-25.924;28.194;2023-02-19T05:49:11;84755.44;;;20.83;56.50
55486;BME280;49383;-25.924;28.194;2023-02-19T05:51:36;84756.71;;;21.08;56.18
55486;BME280;49383;-25.924;28.194;2023-02-19T05:54:01;84754.33;;;21.09;56.15
55486;BME280;49383;-25.924;28.194;2023-02-19T05:56:31;84753.58;;;21.04;56.39
55486;BME280;49383;-25.924;28.194;2023-02-19T05:58:52;84753.58;;;21.41;56.22
55486;BME280;49383;-25.924;28.194;2023-02-19T06:01:19;84753.36;;;21.27;56.04
55486;BME280;49383;-25.924;28.194;2023-02-19T06:03:42;84755.93;;;21.44;52.57
55486;BME280;49383;-25.924;28.194;2023-02-19T06:06:09;84760.79;;;21.12;52.25
55486;BME280;49383;-25.924;28.194;2023-02-19T06:08:32;84759.34;;;21.33;53.69
55486;BME280;49383;-25.924;28.194;2023-02-19T06:10:58;84761.13;;;20.94;55.20
55486;BME280;49383;-25.924;28.194;2023-02-19T06:13:23;84759.48;;;21.03;55.61
55486;BME280;49383;-25.924;28.194;2023-02-19T06:15:48;84755.67;;;21.28;55.59
55486;BME280;49383;-25.924;28.194;2023-02-19T06:18:13;84754.04;;;21.20;55.99
55486;BME280;49383;-25.924;28.194;2023-02-19T06:20:38;84753.79;;;21.31;56.11
55486;BME280;49383;-25.924;28.194;2023-02-19T06:23:03;84748.82;;;21.00;56.29
55486;BME280;49383;-25.924;28.194;2023-02-19T06:25:28;84748.42;;;21.42;55.97
55486;BME280;49383;-25.924;28.194;2023-02-19T06:27:53;84750.77;;;21.32;56.25
55486;BME280;49383;-25.924;28.194;2023-02-19T06:30:19;84753.53;;;21.18;52.29
55486;BME280;49383;-25.924;28.194;2023-02-19T06:32:44;84757.67;;;20.98;52.18
55486;BME280;49383;-25.924;28.194;2023-02-19T06:35:09;84760.70;;;21.31;53.88
55486;BME280;49383;-25.924;28.194;2023-02-19T06:37:35;84759.88;;;21.11;55.10
55486;BME280;49383;-25.924;28.194;2023-02-19T06:40:00;84759.41;;;20.74;55.69
55486;BME280;49383;-25.924;28.194;2023-02-19T06:42:25;84760.14;;;20.78;56.11
55486;BME280;49383;-25.924;28.194;2023-02-19T06:44:50;84764.54;;;21.16;56.34
55486;BME280;49383;-25.924;28.194;2023-02-19T06:47:16;84772.40;;;20.92;56.41
55486;BME280;49383;-25.924;28.194;2023-02-19T06:49:41;84777.67;;;21.18;55.42
55486;BME280;49383;-25.924;28.194;2023-02-19T06:52:06;84780.69;;;21.18;51.68
55486;BME280;49383;-25.924;28.194;2023-02-19T06:54:31;84781.62;;;21.58;52.51
55486;BME280;49383;-25.924;28.194;2023-02-19T06:56:57;84783.15;;;21.34;53.99
55486;BME280;49383;-25.924;28.194;2023-02-19T06:59:22;84783.72;;;20.92;55.01
55486;BME280;49383;-25.924;28.194;2023-02-19T07:01:47;84783.58;;;21.41;55.21
55486;BME280;49383;-25.924;28.194;2023-02-19T07:04:12;84785.24;;;21.31;54.86
55486;BME280;49383;-25.924;28.194;2023-02-19T07:06:38;84787.02;;;21.80;52.36
55486;BME280;49383;-25.924;28.194;2023-02-19T07:09:05;84785.07;;;21.48;50.42
55486;BME280;49383;-25.924;28.194;2023-02-19T07:11:30;84782.37;;;21.78;51.84
55486;BME280;49383;-25.924;28.194;2023-02-19T07:13:55;84779.65;;;21.39;53.34
55486;BME280;49383;-25.924;28.194;2023-02-19T07:16:20;84781.28;;;21.39;53.23
55486;BME280;49383;-25.924;28.194;2023-02-19T07:18:44;84784.03;;;21.56;53.38
55486;BME280;49383;-25.924;28.194;2023-02-19T07:21:11;84785.77;;;21.04;53.78
55486;BME280;49383;-25.924;28.194;2023-02-19T07:23:36;84784.99;;;21.48;53.61
55486;BME280;49383;-25.924;28.194;2023-02-19T07:26:00;84781.32;;;21.86;51.03
55486;BME280;49383;-25.924;28.194;2023-02-19T07:28:26;84783.55;;;21.76;49.61
55486;BME280;49383;-25.924;28.194;2023-02-19T07:30:51;84786.45;;;21.58;51.53
55486;BME280;49383;-25.924;28.194;2023-02-19T07:33:15;84787.21;;;21.35;52.70
55486;BME280;49383;-25.924;28.194;2023-02-19T07:35:45;84784.27;;;21.59;53.34
55486;BME280;49383;-25.924;28.194;2023-02-19T07:38:05;84785.73;;;21.60;53.28
55486;BME280;49383;-25.924;28.194;2023-02-19T07:40:30;84783.97;;;21.83;53.56
55486;BME280;49383;-25.924;28.194;2023-02-19T07:42:55;84778.04;;;21.81;53.50
55486;BME280;49383;-25.924;28.194;2023-02-19T07:45:21;84772.62;;;21.96;50.78
55486;BME280;49383;-25.924;28.194;2023-02-19T07:47:45;84770.86;;;21.81;49.26
55486;BME280;49383;-25.924;28.194;2023-02-19T07:50:11;84778.39;;;22.13;51.23
55486;BME280;49383;-25.924;28.194;2023-02-19T07:52:35;84780.42;;;21.47;52.47
55486;BME280;49383;-25.924;28.194;2023-02-19T07:55:01;84777.91;;;21.77;52.71
55486;BME280;49383;-25.924;28.194;2023-02-19T07:57:28;84770.10;;;21.83;52.68
55486;BME280;49383;-25.924;28.194;2023-02-19T07:59:51;84767.28;;;21.88;52.52
55486;BME280;49383;-25.924;28.194;2023-02-19T08:02:16;84765.09;;;22.14;51.07
55486;BME280;49383;-25.924;28.194;2023-02-19T08:04:41;84762.94;;;22.06;48.05
55486;BME280;49383;-25.924;28.194;2023-02-19T08:07:06;84761.21;;;22.32;49.73
55486;BME280;49383;-25.924;28.194;2023-02-19T08:09:32;84758.41;;;21.97;51.26
55486;BME280;49383;-25.924;28.194;2023-02-19T08:11:56;84759.70;;;22.13;51.90
55486;BME280;49383;-25.924;28.194;2023-02-19T08:14:24;84761.56;;;22.27;48.44
55486;BME280;49383;-25.924;28.194;2023-02-19T08:16:49;84760.39;;;21.88;47.71
55486;BME280;49383;-25.924;28.194;2023-02-19T08:19:11;84757.31;;;21.87;49.84
55486;BME280;49383;-25.924;28.194;2023-02-19T08:21:36;84755.66;;;21.93;50.77
55486;BME280;49383;-25.924;28.194;2023-02-19T08:24:01;84755.05;;;22.14;51.37
55486;BME280;49383;-25.924;28.194;2023-02-19T08:26:26;84754.23;;;22.05;51.72
55486;BME280;49383;-25.924;28.194;2023-02-19T08:28:51;84751.43;;;22.22;49.38
55486;BME280;49383;-25.924;28.194;2023-02-19T08:31:16;84749.49;;;22.40;47.45
55486;BME280;49383;-25.924;28.194;2023-02-19T08:33:41;84749.82;;;22.44;46.43
55486;BME280;49383;-25.924;28.194;2023-02-19T08:36:09;84745.99;;;22.34;47.36
55486;BME280;49383;-25.924;28.194;2023-02-19T08:38:32;84741.79;;;22.14;49.21
55486;BME280;49383;-25.924;28.194;2023-02-19T08:40:56;84738.29;;;22.18;50.12
55486;BME280;49383;-25.924;28.194;2023-02-19T08:43:21;84731.14;;;21.80;50.68
55486;BME280;49383;-25.924;28.194;2023-02-19T08:45:46;84729.74;;;22.31;49.18
55486;BME280;49383;-25.924;28.194;2023-02-19T08:48:12;84725.11;;;22.45;46.08
55486;BME280;49383;-25.924;28.194;2023-02-19T08:50:36;84725.29;;;22.61;45.49
55486;BME280;49383;-25.924;28.194;2023-02-19T08:53:02;84727.04;;;22.53;45.08
55486;BME280;49383;-25.924;28.194;2023-02-19T08:55:27;84724.80;;;22.42;44.77
55486;BME280;49383;-25.924;28.194;2023-02-19T08:57:51;84722.43;;;22.26;44.27
55486;BME280;49383;-25.924;28.194;2023-02-19T09:00:18;84724.48;;;22.37;44.08
55486;BME280;49383;-25.924;28.194;2023-02-19T09:02:43;84727.33;;;22.40;43.70
55486;BME280;49383;-25.924;28.194;2023-02-19T09:05:10;84725.00;;;22.22;43.36
55486;BME280;49383;-25.924;28.194;2023-02-19T09:07:33;84727.84;;;22.54;44.64
55486;BME280;49383;-25.924;28.194;2023-02-19T09:09:59;84731.12;;;22.05;46.34
55486;BME280;49383;-25.924;28.194;2023-02-19T09:12:23;84725.46;;;21.86;47.38
55486;BME280;49383;-25.924;28.194;2023-02-19T09:14:48;84722.00;;;22.19;47.97
55486;BME280;49383;-25.924;28.194;2023-02-19T09:17:14;84718.97;;;22.14;47.36
55486;BME280;49383;-25.924;28.194;2023-02-19T09:19:40;84717.24;;;22.29;44.76
55486;BME280;49383;-25.924;28.194;2023-02-19T09:22:07;84716.60;;;22.31;44.08
55486;BME280;49383;-25.924;28.194;2023-02-19T09:24:32;84715.23;;;22.48;44.01
55486;BME280;49383;-25.924;28.194;2023-02-19T09:26:57;84713.13;;;22.29;43.94
55486;BME280;49383;-25.924;28.194;2023-02-19T09:29:24;84711.25;;;22.21;45.31
55486;BME280;49383;-25.924;28.194;2023-02-19T09:31:47;84714.52;;;22.17;46.60
55486;BME280;49383;-25.924;28.194;2023-02-19T09:34:12;84711.95;;;21.98;47.64
55486;BME280;49383;-25.924;28.194;2023-02-19T09:36:37;84707.32;;;22.26;48.34
55486;BME280;49383;-25.924;28.194;2023-02-19T09:39:02;84708.29;;;22.07;48.79
55486;BME280;49383;-25.924;28.194;2023-02-19T09:41:30;84705.02;;;22.18;49.05
55486;BME280;49383;-25.924;28.194;2023-02-19T09:43:53;84702.24;;;22.20;46.30
55486;BME280;49383;-25.924;28.194;2023-02-19T09:46:26;84701.00;;;22.47;45.40
55486;BME280;49383;-25.924;28.194;2023-02-19T09:48:43;84693.69;;;22.29;45.58
55486;BME280;49383;-25.924;28.194;2023-02-19T09:51:09;84690.67;;;22.00;45.53
55486;BME280;49383;-25.924;28.194;2023-02-19T09:53:39;84689.05;;;22.66;44.48
55486;BME280;49383;-25.924;28.194;2023-02-19T09:55:59;84687.16;;;22.42;45.93
55486;BME280;49383;-25.924;28.194;2023-02-19T09:58:27;84681.49;;;22.35;47.46
55486;BME280;49383;-25.924;28.194;2023-02-19T10:00:52;84679.33;;;22.11;48.47
55486;BME280;49383;-25.924;28.194;2023-02-19T10:03:21;84670.97;;;22.04;49.16
55486;BME280;49383;-25.924;28.194;2023-02-19T10:05:41;84668.94;;;22.06;49.86
55486;BME280;49383;-25.924;28.194;2023-02-19T10:08:11;84664.62;;;22.55;46.72
55486;BME280;49383;-25.924;28.194;2023-02-19T10:10:35;84660.14;;;22.08;45.76
55486;BME280;49383;-25.924;28.194;2023-02-19T10:15:28;84650.24;;;22.40;45.62
55486;BME280;49383;-25.924;28.194;2023-02-19T10:17:48;84649.73;;;22.04;47.66
55486;BME280;49383;-25.924;28.194;2023-02-19T10:20:14;84649.05;;;22.30;48.43
55486;BME280;49383;-25.924;28.194;2023-02-19T10:22:38;84645.87;;;22.35;49.10
55486;BME280;49383;-25.924;28.194;2023-02-19T10:25:04;84642.60;;;21.93;49.83
55486;BME280;49383;-25.924;28.194;2023-02-19T10:27:30;84639.66;;;22.24;50.22
55486;BME280;49383;-25.924;28.194;2023-02-19T10:29:54;84636.79;;;22.11;50.43
55486;BME280;49383;-25.924;28.194;2023-02-19T10:32:20;84638.02;;;22.34;50.52
55486;BME280;49383;-25.924;28.194;2023-02-19T10:34:44;84639.76;;;22.37;47.78
55486;BME280;49383;-25.924;28.194;2023-02-19T10:37:13;84639.49;;;22.21;46.49
55486;BME280;49383;-25.924;28.194;2023-02-19T10:39:40;84636.07;;;22.13;46.96
55486;BME280;49383;-25.924;28.194;2023-02-19T10:41:59;84629.86;;;22.46;48.18
55486;BME280;49383;-25.924;28.194;2023-02-19T10:44:26;84622.39;;;22.28;49.44
55486;BME280;49383;-25.924;28.194;2023-02-19T10:46:52;84615.98;;;22.28;49.79
55486;BME280;49383;-25.924;28.194;2023-02-19T10:49:23;84613.77;;;21.91;50.48
55486;BME280;49383;-25.924;28.194;2023-02-19T10:51:41;84609.32;;;22.02;50.64
55486;BME280;49383;-25.924;28.194;2023-02-19T10:54:14;84609.18;;;22.12;48.97
55486;BME280;49383;-25.924;28.194;2023-02-19T10:56:31;84605.16;;;22.09;47.01
55486;BME280;49383;-25.924;28.194;2023-02-19T11:01:23;84595.82;;;22.40;47.07
55486;BME280;49383;-25.924;28.194;2023-02-19T11:03:49;84589.60;;;22.41;49.25
55486;BME280;49383;-25.924;28.194;2023-02-19T11:06:15;84588.27;;;22.18;51.36
55486;BME280;49383;-25.924;28.194;2023-02-19T11:08:46;84587.97;;;22.04;52.98
55486;BME280;49383;-25.924;28.194;2023-02-19T11:11:04;84583.32;;;22.09;50.08
55486;BME280;49383;-25.924;28.194;2023-02-19T11:13:32;84576.33;;;22.59;48.65
55486;BME280;49383;-25.924;28.194;2023-02-19T11:15:55;84572.87;;;22.61;50.31
55486;BME280;49383;-25.924;28.194;2023-02-19T11:18:22;84566.56;;;22.69;51.69
55486;BME280;49383;-25.924;28.194;2023-02-19T11:20:48;84566.69;;;22.42;52.78
55486;BME280;49383;-25.924;28.194;2023-02-19T11:23:15;84565.61;;;22.74;51.56
55486;BME280;49383;-25.924;28.194;2023-02-19T11:25:36;84565.32;;;22.13;49.81
55486;BME280;49383;-25.924;28.194;2023-02-19T11:28:04;84562.35;;;22.86;48.37
55486;BME280;49383;-25.924;28.194;2023-02-19T11:30:32;84560.27;;;22.50;50.30
55486;BME280;49383;-25.924;28.194;2023-02-19T11:32:51;84558.31;;;22.27;51.60
55486;BME280;49383;-25.924;28.194;2023-02-19T11:35:19;84555.92;;;21.92;52.20
55486;BME280;49383;-25.924;28.194;2023-02-19T11:40:08;84548.56;;;22.11;49.08
55486;BME280;49383;-25.924;28.194;2023-02-19T11:42:39;84539.35;;;22.38;47.22
55486;BME280;49383;-25.924;28.194;2023-02-19T11:49:52;84537.84;;;22.18;45.99
55486;BME280;49383;-25.924;28.194;2023-02-19T11:52:20;84535.09;;;22.52;46.55
55486;BME280;49383;-25.924;28.194;2023-02-19T11:54:46;84532.45;;;22.26;47.73
55486;BME280;49383;-25.924;28.194;2023-02-19T11:57:07;84533.43;;;22.65;49.01
55486;BME280;49383;-25.924;28.194;2023-02-19T11:59:31;84531.62;;;22.45;50.19
55486;BME280;49383;-25.924;28.194;2023-02-19T12:02:08;84527.03;;;22.41;51.11
55486;BME280;49383;-25.924;28.194;2023-02-19T12:04:30;84523.11;;;22.30;51.55
55486;BME280;49383;-25.924;28.194;2023-02-19T12:06:48;84512.30;;;22.11;51.10
55486;BME280;49383;-25.924;28.194;2023-02-19T12:09:22;84510.39;;;22.20;50.99
55486;BME280;49383;-25.924;28.194;2023-02-19T12:11:40;84508.44;;;22.42;51.10
55486;BME280;49383;-25.924;28.194;2023-02-19T12:14:14;84505.74;;;22.62;51.81
55486;BME280;49383;-25.924;28.194;2023-02-19T12:16:24;84500.89;;;22.40;50.15
55486;BME280;49383;-25.924;28.194;2023-02-19T12:18:57;84495.59;;;22.27;48.39
55486;BME280;49383;-25.924;28.194;2023-02-19T12:21:20;84496.75;;;22.27;47.39
55486;BME280;49383;-25.924;28.194;2023-02-19T12:23:49;84490.78;;;22.33;46.72
55486;BME280;49383;-25.924;28.194;2023-02-19T12:26:05;84489.12;;;22.52;45.72
55486;BME280;49383;-25.924;28.194;2023-02-19T12:28:40;84491.98;;;22.57;46.01
55486;BME280;49383;-25.924;28.194;2023-02-19T12:31:05;84488.03;;;22.62;47.78
55486;BME280;49383;-25.924;28.194;2023-02-19T12:35:48;84492.46;;;22.18;49.79
55486;BME280;49383;-25.924;28.194;2023-02-19T12:38:19;84494.24;;;22.15;50.27
55486;BME280;49383;-25.924;28.194;2023-02-19T12:40:42;84487.12;;;22.61;50.79
55486;BME280;49383;-25.924;28.194;2023-02-19T12:43:09;84484.93;;;22.31;51.40
55486;BME280;49383;-25.924;28.194;2023-02-19T12:45:29;84483.27;;;22.40;48.76
55486;BME280;49383;-25.924;28.194;2023-02-19T12:47:55;84477.74;;;22.24;47.74
55486;BME280;49383;-25.924;28.194;2023-02-19T12:50:17;84475.15;;;22.24;47.63